createdAt,value
2017-07-11T00:00:46.946Z,20.02
2017-07-11T00:03:16.381Z,20.00
2017-07-11T00:05:45.835Z,20.03
2017-07-11T00:08:15.289Z,19.99
2017-07-11T00:10:44.731Z,19.92
2017-07-11T00:13:14.024Z,19.93
2017-07-11T00:15:43.290Z,19.92
2017-07-11T00:18:12.730Z,19.88
2017-07-11T00:20:42.194Z,19.87
2017-07-11T00:23:11.661Z,19.88
2017-07-11T00:25:41.101Z,19.88
2017-07-11T00:28:10.540Z,19.92
2017-07-11T00:30:40.048Z,19.91
2017-07-11T00:33:09.500Z,19.90
2017-07-11T00:35:38.926Z,19.93
2017-07-11T00:38:08.379Z,19.92
2017-07-11T00:40:37.823Z,19.93
2017-07-11T00:43:07.267Z,19.92
2017-07-11T00:45:36.714Z,19.90
2017-07-11T00:48:06.173Z,19.85
2017-07-11T00:50:35.621Z,19.91
2017-07-11T00:53:04.886Z,19.90
2017-07-11T00:55:34.342Z,19.80
2017-07-11T00:58:04.814Z,19.80
2017-07-11T01:00:34.253Z,19.81
2017-07-11T01:03:03.707Z,19.79
2017-07-11T01:05:33.153Z,19.75
2017-07-11T01:08:02.619Z,19.74
2017-07-11T01:10:32.073Z,19.72
2017-07-11T01:13:01.562Z,19.71
2017-07-11T01:15:31.022Z,19.70
2017-07-11T01:18:00.480Z,19.70
2017-07-11T01:20:29.943Z,19.65
2017-07-11T01:22:59.385Z,19.68
2017-07-11T01:25:28.825Z,19.63
2017-07-11T01:27:58.278Z,19.67
2017-07-11T01:30:27.726Z,19.67
2017-07-11T01:32:57.170Z,19.68
2017-07-11T01:35:26.631Z,19.66
2017-07-11T01:37:56.087Z,19.62
2017-07-11T01:40:25.550Z,19.58
2017-07-11T01:42:54.991Z,19.60
2017-07-11T01:45:24.447Z,19.57
2017-07-11T01:47:53.916Z,19.53
2017-07-11T01:50:23.358Z,19.55
2017-07-11T01:52:52.806Z,19.55
2017-07-11T01:55:22.246Z,19.50
2017-07-11T01:57:51.727Z,19.50
2017-07-11T02:00:20.810Z,19.44
2017-07-11T02:02:50.085Z,19.33
2017-07-11T02:05:19.196Z,19.34
2017-07-11T02:07:48.653Z,19.27
2017-07-11T02:10:18.123Z,19.21
2017-07-11T02:12:47.580Z,19.27
2017-07-11T02:15:17.022Z,19.21
2017-07-11T02:17:46.481Z,19.17
2017-07-11T02:20:15.938Z,19.12
2017-07-11T02:22:45.373Z,19.12
2017-07-11T02:25:14.817Z,19.11
2017-07-11T02:27:44.285Z,19.03
2017-07-11T02:30:13.730Z,18.96
2017-07-11T02:32:43.275Z,18.94
2017-07-11T02:35:12.721Z,18.89
2017-07-11T02:37:42.165Z,18.94
2017-07-11T02:40:11.605Z,18.89
2017-07-11T02:42:41.078Z,18.86
2017-07-11T02:45:10.526Z,18.86
2017-07-11T02:47:39.965Z,18.87
2017-07-11T02:50:09.414Z,18.89
2017-07-11T02:52:38.860Z,18.85
2017-07-11T02:55:08.344Z,18.87
2017-07-11T02:57:37.791Z,18.90
2017-07-11T03:00:07.230Z,18.93
2017-07-11T03:02:36.487Z,18.90
2017-07-11T03:05:05.925Z,18.93
2017-07-11T03:07:35.372Z,18.92
2017-07-11T03:10:04.810Z,18.88
2017-07-11T03:12:34.294Z,18.79
2017-07-11T03:15:03.727Z,18.74
2017-07-11T03:17:33.172Z,18.70
2017-07-11T03:20:02.646Z,18.60
2017-07-11T03:22:32.110Z,18.58
2017-07-11T03:25:01.550Z,18.54
2017-07-11T03:27:30.998Z,18.55
2017-07-11T03:30:00.438Z,18.55
2017-07-11T03:32:29.725Z,18.58
2017-07-11T03:34:59.181Z,18.56
2017-07-11T03:37:28.629Z,18.53
2017-07-11T03:39:58.065Z,18.53
2017-07-11T03:42:27.520Z,18.60
2017-07-11T03:44:56.970Z,18.55
2017-07-11T03:47:26.410Z,18.55
2017-07-11T03:49:55.866Z,18.56
2017-07-11T03:52:25.321Z,18.53
2017-07-11T03:54:54.755Z,18.56
2017-07-11T03:57:24.201Z,18.52
2017-07-11T03:59:53.997Z,18.56
2017-07-11T04:02:23.719Z,18.57
2017-07-11T04:04:53.190Z,18.65
2017-07-11T04:07:22.649Z,18.58
2017-07-11T04:09:52.101Z,18.59
2017-07-11T04:12:21.537Z,18.59
2017-07-11T04:14:51.063Z,18.56
2017-07-11T04:17:20.898Z,18.66
2017-07-11T04:19:50.350Z,18.82
2017-07-11T04:22:19.648Z,18.89
2017-07-11T04:24:49.078Z,18.98
2017-07-11T04:27:18.720Z,19.01
2017-07-11T04:29:48.165Z,19.00
2017-07-11T04:32:17.607Z,19.06
2017-07-11T04:34:47.060Z,19.18
2017-07-11T04:37:16.521Z,19.23
2017-07-11T04:39:45.953Z,19.32
2017-07-11T04:42:15.409Z,19.45
2017-07-11T04:44:44.878Z,19.50
2017-07-11T04:47:14.309Z,19.61
2017-07-11T04:49:43.759Z,19.82
2017-07-11T04:52:13.213Z,19.83
2017-07-11T04:54:42.671Z,19.77
2017-07-11T04:57:12.108Z,19.89
2017-07-11T04:59:41.578Z,19.93
2017-07-11T05:02:11.017Z,19.78
2017-07-11T05:04:40.463Z,19.93
2017-07-11T05:07:09.910Z,19.94
2017-07-11T05:09:39.365Z,19.89
2017-07-11T05:12:08.813Z,20.11
2017-07-11T05:14:38.257Z,20.12
2017-07-11T05:17:07.706Z,20.19
2017-07-11T05:19:37.153Z,20.35
2017-07-11T05:22:06.613Z,20.29
2017-07-11T05:24:36.058Z,20.19
2017-07-11T05:27:05.773Z,20.15
2017-07-11T05:29:35.246Z,20.03
2017-07-11T05:32:04.701Z,20.33
2017-07-11T05:34:34.157Z,20.29
2017-07-11T05:37:03.616Z,20.28
2017-07-11T05:39:33.061Z,20.34
2017-07-11T05:42:02.525Z,20.13
2017-07-11T05:44:32.000Z,20.31
2017-07-11T05:47:01.418Z,20.45
2017-07-11T05:49:30.869Z,20.54
2017-07-11T05:52:00.318Z,20.62
2017-07-11T05:54:29.754Z,20.65
2017-07-11T05:56:59.205Z,20.70
2017-07-11T05:59:28.654Z,20.65
2017-07-11T06:01:58.110Z,20.54
2017-07-11T06:04:27.598Z,20.63
2017-07-11T06:06:57.026Z,20.71
2017-07-11T06:09:26.469Z,20.69
2017-07-11T06:11:55.912Z,20.80
2017-07-11T06:14:25.359Z,20.84
2017-07-11T06:16:54.855Z,20.86
2017-07-11T06:19:24.293Z,20.71
2017-07-11T06:21:53.747Z,20.58
2017-07-11T06:24:23.189Z,20.61
2017-07-11T06:26:54.190Z,20.53
2017-07-11T06:29:23.641Z,20.43
2017-07-11T06:31:53.088Z,20.16
2017-07-11T06:34:22.525Z,20.12
2017-07-11T06:36:53.053Z,20.07
2017-07-11T06:39:22.496Z,19.92
2017-07-11T06:41:51.961Z,19.89
2017-07-11T06:44:21.423Z,19.97
2017-07-11T06:46:50.869Z,20.05
2017-07-11T06:49:20.326Z,20.37
2017-07-11T06:51:49.791Z,20.58
2017-07-11T06:54:19.260Z,20.51
2017-07-11T06:56:48.720Z,20.73
2017-07-11T06:59:18.182Z,20.86
2017-07-11T07:01:47.634Z,20.92
2017-07-11T07:04:17.082Z,20.84
2017-07-11T07:06:46.514Z,20.99
2017-07-11T07:09:15.953Z,21.08
2017-07-11T07:11:45.411Z,21.29
2017-07-11T07:14:14.863Z,21.37
2017-07-11T07:16:44.314Z,21.55
2017-07-11T07:19:13.777Z,21.70
2017-07-11T07:21:43.239Z,21.59
2017-07-11T07:24:12.686Z,21.88
2017-07-11T07:26:42.137Z,22.03
2017-07-11T07:29:11.606Z,21.91
2017-07-11T07:31:41.167Z,21.99
2017-07-11T07:34:10.642Z,22.16
2017-07-11T07:36:40.072Z,21.98
2017-07-11T07:39:09.541Z,22.00
2017-07-11T07:41:38.986Z,22.01
2017-07-11T07:44:08.426Z,22.31
2017-07-11T07:46:37.884Z,22.06
2017-07-11T07:49:07.338Z,22.35
2017-07-11T07:51:36.797Z,22.42
2017-07-11T07:54:06.239Z,22.75
2017-07-11T07:56:35.691Z,22.54
2017-07-11T07:59:05.124Z,22.24
2017-07-11T08:01:34.630Z,22.48
2017-07-11T08:04:04.083Z,22.66
2017-07-11T08:06:33.526Z,22.71
2017-07-11T08:09:02.971Z,22.55
2017-07-11T08:11:32.429Z,22.65
2017-07-11T08:14:01.879Z,22.63
2017-07-11T08:16:31.331Z,22.94
2017-07-11T08:19:00.766Z,22.51
2017-07-11T08:21:30.210Z,22.78
2017-07-11T08:23:59.670Z,23.35
2017-07-11T08:26:29.106Z,23.19
2017-07-11T08:28:58.553Z,23.10
2017-07-11T08:31:28.001Z,23.04
2017-07-11T08:33:57.458Z,23.34
2017-07-11T08:36:26.919Z,23.48
2017-07-11T08:38:56.379Z,23.39
2017-07-11T08:41:25.828Z,23.25
2017-07-11T08:43:55.256Z,23.36
2017-07-11T08:46:24.719Z,23.48
2017-07-11T08:48:54.179Z,23.71
2017-07-11T08:51:23.622Z,24.11
2017-07-11T08:53:53.086Z,24.30
2017-07-11T08:56:22.529Z,24.57
2017-07-11T08:58:52.401Z,24.71
2017-07-11T09:01:21.842Z,24.35
2017-07-11T09:03:51.291Z,23.99
2017-07-11T09:06:20.737Z,23.66
2017-07-11T09:08:50.226Z,23.84
2017-07-11T09:11:19.682Z,23.67
2017-07-11T09:13:49.118Z,23.80
2017-07-11T09:16:18.567Z,23.83
2017-07-11T09:25:35.254Z,23.89
2017-07-11T09:28:04.756Z,24.37
2017-07-11T09:30:34.407Z,24.44
2017-07-11T09:33:03.860Z,24.67
2017-07-11T09:35:33.327Z,24.16
2017-07-11T09:38:02.792Z,24.48
2017-07-11T09:40:32.277Z,24.17
2017-07-11T09:43:01.735Z,24.43
2017-07-11T09:45:31.181Z,24.22
2017-07-11T09:48:00.625Z,24.26
2017-07-11T09:50:30.069Z,24.17
2017-07-11T09:52:59.517Z,24.28
2017-07-11T09:55:28.961Z,24.60
2017-07-11T09:57:58.552Z,24.70
2017-07-11T10:00:28.018Z,25.10
2017-07-11T10:02:57.287Z,25.01
2017-07-11T10:05:26.743Z,24.68
2017-07-11T10:07:56.188Z,24.65
2017-07-11T10:10:25.630Z,25.03
2017-07-11T10:12:55.078Z,25.07
2017-07-11T10:15:24.530Z,25.33
2017-07-11T10:17:53.982Z,25.51
2017-07-11T10:20:23.434Z,25.78
2017-07-11T10:22:52.896Z,25.74
2017-07-11T10:25:22.360Z,26.21
2017-07-11T10:27:51.806Z,25.53
2017-07-11T10:30:21.242Z,25.76
2017-07-11T10:32:50.693Z,25.95
2017-07-11T10:35:20.143Z,25.65
2017-07-11T10:37:49.617Z,25.92
2017-07-11T10:40:19.057Z,26.23
2017-07-11T10:42:48.511Z,25.96
2017-07-11T10:45:17.967Z,26.24
2017-07-11T10:47:47.417Z,26.25
2017-07-11T10:50:16.877Z,26.73
2017-07-11T10:52:46.352Z,26.66
2017-07-11T10:55:15.807Z,26.07
2017-07-11T10:57:45.261Z,25.81
2017-07-11T11:00:14.707Z,26.04
2017-07-11T11:02:44.199Z,26.14
2017-07-11T11:05:13.654Z,26.51
2017-07-11T11:07:43.103Z,26.39
2017-07-11T11:10:12.567Z,27.38
2017-07-11T11:12:42.024Z,27.57
2017-07-11T11:15:11.489Z,26.83
2017-07-11T11:17:40.947Z,27.05
2017-07-11T11:20:10.509Z,27.22
2017-07-11T11:22:39.938Z,27.18
2017-07-11T11:25:09.401Z,26.80
2017-07-11T11:27:38.853Z,27.13
2017-07-11T11:30:08.305Z,26.93
2017-07-11T11:32:37.578Z,27.54
2017-07-11T11:35:07.075Z,27.78
2017-07-11T11:37:36.517Z,27.28
2017-07-11T11:40:05.974Z,27.47
2017-07-11T11:42:35.443Z,27.62
2017-07-11T11:45:04.880Z,28.06
2017-07-11T11:47:34.170Z,28.11
2017-07-11T11:50:03.612Z,27.66
2017-07-11T11:52:33.050Z,26.97
2017-07-11T11:55:02.513Z,27.02
2017-07-11T11:57:31.963Z,27.65
2017-07-11T12:00:01.401Z,27.40
2017-07-11T12:02:30.882Z,27.87
2017-07-11T12:05:00.340Z,27.83
2017-07-11T12:07:29.776Z,27.67
2017-07-11T12:09:59.392Z,27.87
2017-07-11T12:12:28.869Z,27.69
2017-07-11T12:14:58.318Z,27.74
2017-07-11T12:17:27.792Z,27.69
2017-07-11T12:19:57.233Z,27.65
2017-07-11T12:22:26.676Z,28.28
2017-07-11T12:24:56.140Z,28.40
2017-07-11T12:27:25.593Z,28.69
2017-07-11T12:29:55.042Z,29.63
2017-07-11T12:32:24.496Z,29.60
2017-07-11T12:34:54.019Z,28.87
2017-07-11T12:37:23.465Z,30.30
2017-07-11T12:39:53.035Z,31.91
2017-07-11T12:42:22.486Z,32.68
2017-07-11T12:44:51.914Z,32.15
2017-07-11T12:47:21.366Z,30.74
2017-07-11T12:49:50.831Z,31.92
2017-07-11T12:52:20.468Z,31.69
2017-07-11T12:54:49.995Z,32.32
2017-07-11T12:57:19.423Z,32.64
2017-07-11T12:59:48.898Z,32.73
2017-07-11T13:02:18.357Z,32.72
2017-07-11T13:04:47.798Z,33.43
2017-07-11T13:07:17.253Z,31.58
2017-07-11T13:09:46.705Z,31.46
2017-07-11T13:12:16.167Z,31.49
2017-07-11T13:14:45.633Z,30.72
2017-07-11T13:17:15.096Z,29.85
2017-07-11T13:19:44.559Z,31.60
2017-07-11T13:22:14.277Z,29.55
2017-07-11T13:24:43.726Z,29.15
2017-07-11T13:27:13.169Z,29.46
2017-07-11T13:29:42.674Z,31.28
2017-07-11T13:32:12.146Z,32.26
2017-07-11T13:34:41.244Z,32.50
2017-07-11T13:37:10.683Z,33.15
2017-07-11T13:39:40.242Z,33.56
2017-07-11T13:42:09.683Z,35.15
2017-07-11T13:44:39.118Z,34.41
2017-07-11T13:47:08.592Z,34.30
2017-07-11T13:49:38.055Z,33.85
2017-07-11T13:52:07.362Z,33.29
2017-07-11T13:54:36.790Z,31.25
2017-07-11T13:57:06.242Z,31.03
2017-07-11T13:59:35.681Z,32.72
2017-07-11T14:02:05.204Z,34.46
2017-07-11T14:04:34.653Z,33.97
2017-07-11T14:07:04.106Z,32.48
2017-07-11T14:09:33.589Z,31.51
2017-07-11T14:12:03.051Z,30.40
2017-07-11T14:14:32.491Z,30.81
2017-07-11T14:17:01.961Z,29.87
2017-07-11T14:19:31.425Z,31.64
2017-07-11T14:22:00.862Z,32.43
2017-07-11T14:24:30.341Z,32.36
2017-07-11T14:26:59.774Z,33.42
2017-07-11T14:29:29.222Z,33.34
2017-07-11T14:31:58.676Z,34.09
2017-07-11T14:34:28.132Z,34.42
2017-07-11T14:36:57.586Z,34.68
2017-07-11T14:39:27.057Z,34.05
2017-07-11T14:41:56.584Z,32.75
2017-07-11T14:44:26.060Z,34.72
2017-07-11T14:46:55.517Z,35.39
2017-07-11T14:49:24.961Z,35.86
2017-07-11T14:51:54.417Z,34.58
2017-07-11T14:54:23.893Z,33.74
2017-07-11T14:56:53.324Z,35.02
2017-07-11T14:59:22.789Z,35.28
2017-07-11T15:01:52.242Z,35.79
2017-07-11T15:04:21.706Z,35.24
2017-07-11T15:06:51.166Z,35.28
2017-07-11T15:09:20.632Z,35.33
2017-07-11T15:11:50.141Z,34.58
2017-07-11T15:14:19.593Z,35.63
2017-07-11T15:16:49.083Z,33.81
2017-07-11T15:19:18.527Z,34.31
2017-07-11T15:21:48.041Z,34.58
2017-07-11T15:24:17.634Z,33.33
2017-07-11T15:26:47.092Z,34.20
2017-07-11T15:29:16.547Z,34.26
2017-07-11T15:31:45.991Z,36.02
2017-07-11T15:34:15.458Z,36.49
2017-07-11T15:36:44.919Z,35.15
2017-07-11T15:39:14.376Z,33.37
2017-07-11T15:41:43.819Z,33.65
2017-07-11T15:44:13.262Z,33.50
2017-07-11T15:46:42.728Z,34.00
2017-07-11T15:49:12.173Z,34.42
2017-07-11T15:51:41.658Z,35.07
2017-07-11T15:54:11.117Z,33.33
2017-07-11T15:56:40.579Z,30.25
2017-07-11T15:59:10.037Z,31.39
2017-07-11T16:01:39.478Z,31.79
2017-07-11T16:04:08.934Z,32.65
2017-07-11T16:06:38.386Z,34.36
2017-07-11T16:09:07.839Z,33.44
2017-07-11T16:11:37.297Z,33.19
2017-07-11T16:14:06.817Z,33.94
2017-07-11T16:16:36.258Z,33.44
2017-07-11T16:19:05.703Z,33.70
2017-07-11T16:21:35.138Z,35.09
2017-07-11T16:24:04.592Z,35.96
2017-07-11T16:26:34.049Z,35.58
2017-07-11T16:29:03.481Z,35.77
2017-07-11T16:31:32.928Z,34.95
2017-07-11T16:34:02.382Z,34.87
2017-07-11T16:36:31.824Z,34.09
2017-07-11T16:39:02.036Z,34.13
2017-07-11T16:41:31.518Z,32.99
2017-07-11T16:44:00.991Z,32.83
2017-07-11T16:46:30.534Z,31.38
2017-07-11T16:49:00.009Z,30.55
2017-07-11T16:51:29.461Z,30.35
2017-07-11T16:53:58.924Z,29.79
2017-07-11T16:56:28.357Z,29.59
2017-07-11T16:58:57.820Z,29.40
2017-07-11T17:01:27.278Z,28.88
2017-07-11T17:03:56.731Z,28.94
2017-07-11T17:06:26.180Z,28.40
2017-07-11T17:08:55.644Z,28.69
2017-07-11T17:11:25.096Z,28.17
2017-07-11T17:13:54.677Z,28.39
2017-07-11T17:16:24.123Z,28.75
2017-07-11T17:18:53.564Z,30.26
2017-07-11T17:21:23.052Z,31.56
2017-07-11T17:23:52.490Z,32.83
2017-07-11T17:26:21.975Z,33.23
2017-07-11T17:28:51.428Z,31.67
2017-07-11T17:31:20.875Z,29.87
2017-07-11T17:33:50.353Z,29.72
2017-07-11T17:36:19.810Z,29.47
2017-07-11T17:38:49.254Z,28.89
2017-07-11T17:41:18.695Z,29.76
2017-07-11T17:43:48.142Z,30.37
2017-07-11T17:46:17.609Z,31.13
2017-07-11T17:48:47.090Z,31.27
2017-07-11T17:51:16.339Z,31.22
2017-07-11T17:53:45.805Z,31.09
2017-07-11T17:56:15.245Z,30.08
2017-07-11T17:58:44.733Z,29.57
2017-07-11T18:01:14.189Z,29.38
2017-07-11T18:03:43.634Z,28.67
2017-07-11T18:06:13.083Z,28.33
2017-07-11T18:08:42.541Z,27.62
2017-07-11T18:11:11.978Z,27.64
2017-07-11T18:13:41.419Z,27.48
2017-07-11T18:16:10.885Z,27.80
2017-07-11T18:18:40.325Z,27.54
2017-07-11T18:21:09.923Z,27.21
2017-07-11T18:23:39.377Z,27.12
2017-07-11T18:26:08.826Z,27.04
2017-07-11T18:28:38.269Z,26.77
2017-07-11T18:31:07.730Z,26.64
2017-07-11T18:33:37.284Z,26.56
2017-07-11T18:36:06.846Z,26.34
2017-07-11T18:38:36.314Z,26.28
2017-07-11T18:41:06.049Z,26.18
2017-07-11T18:43:35.573Z,26.16
2017-07-11T18:46:05.091Z,26.00
2017-07-11T18:48:34.532Z,25.92
2017-07-11T18:51:03.978Z,25.81
2017-07-11T18:53:33.439Z,25.73
2017-07-11T18:56:02.897Z,25.61
2017-07-11T18:58:32.348Z,25.54
2017-07-11T19:01:01.793Z,25.46
2017-07-11T19:03:31.249Z,25.31
2017-07-11T19:06:00.731Z,25.13
2017-07-11T19:08:30.169Z,24.89
2017-07-11T19:10:59.631Z,24.75
2017-07-11T19:13:29.098Z,24.62
2017-07-11T19:15:58.549Z,24.45
2017-07-11T19:18:28.020Z,24.38
2017-07-11T19:20:57.476Z,24.21
2017-07-11T19:23:26.937Z,24.10
2017-07-11T19:25:56.388Z,23.75
2017-07-11T19:28:25.862Z,23.73
2017-07-11T19:30:55.352Z,23.69
2017-07-11T19:33:24.807Z,23.58
2017-07-11T19:35:54.273Z,23.45
2017-07-11T19:38:23.750Z,23.28
2017-07-11T19:40:53.200Z,23.14
2017-07-11T19:43:22.657Z,23.09
2017-07-11T19:45:52.267Z,23.02
2017-07-11T19:48:21.734Z,22.93
2017-07-11T19:50:51.190Z,22.91
2017-07-11T19:53:20.707Z,22.82
2017-07-11T19:55:50.148Z,22.70
2017-07-11T19:58:19.590Z,22.60
2017-07-11T20:00:49.060Z,22.49
2017-07-11T20:03:18.506Z,22.45
2017-07-11T20:05:47.967Z,22.37
2017-07-11T20:08:17.428Z,22.32
2017-07-11T20:10:46.884Z,22.28
2017-07-11T20:13:16.335Z,22.18
2017-07-11T20:15:45.787Z,22.13
2017-07-11T20:18:15.238Z,21.99
2017-07-11T20:20:44.687Z,21.88
2017-07-11T20:23:14.133Z,21.76
2017-07-11T20:25:43.579Z,21.79
2017-07-11T20:28:13.018Z,21.75
2017-07-11T20:30:42.468Z,21.68
2017-07-11T20:33:11.965Z,21.70
2017-07-11T20:35:41.387Z,21.71
2017-07-11T20:38:10.846Z,21.74
2017-07-11T20:40:40.299Z,21.73
2017-07-11T20:43:09.758Z,21.71
2017-07-11T20:45:39.225Z,21.63
2017-07-11T20:48:08.659Z,21.58
2017-07-11T20:50:38.156Z,21.56
2017-07-11T20:53:07.601Z,21.51
2017-07-11T20:55:37.054Z,21.47
2017-07-11T20:58:06.508Z,21.40
2017-07-11T21:00:35.976Z,21.34
2017-07-11T21:03:05.452Z,21.30
2017-07-11T21:05:34.886Z,21.29
2017-07-11T21:08:04.346Z,21.28
2017-07-11T21:10:33.801Z,21.26
2017-07-11T21:13:03.252Z,21.25
2017-07-11T21:15:32.723Z,21.24
2017-07-11T21:18:02.178Z,21.22
2017-07-11T21:20:31.620Z,21.19
2017-07-11T21:23:01.090Z,21.15
2017-07-11T21:25:30.663Z,21.11
2017-07-11T21:28:00.115Z,21.03
2017-07-11T21:30:29.566Z,20.91
2017-07-11T21:32:59.012Z,20.82
2017-07-11T21:35:28.458Z,20.78
2017-07-11T21:37:57.933Z,20.77
2017-07-11T21:40:27.404Z,20.79
2017-07-11T21:42:56.864Z,20.81
2017-07-11T21:45:26.338Z,20.83
2017-07-11T21:47:55.787Z,20.88
2017-07-11T21:50:25.243Z,21.02
2017-07-11T21:52:54.686Z,21.26
2017-07-11T21:55:24.117Z,21.51
2017-07-11T21:57:53.570Z,21.68
2017-07-11T22:00:23.130Z,21.73
2017-07-11T22:02:52.409Z,21.79
2017-07-11T22:05:21.855Z,21.92
2017-07-11T22:07:51.306Z,21.90
2017-07-11T22:10:20.755Z,21.89
2017-07-11T22:12:50.201Z,21.89
2017-07-11T22:15:19.667Z,21.84
2017-07-11T22:17:49.360Z,21.78
2017-07-11T22:20:18.809Z,21.73
2017-07-11T22:22:48.266Z,21.69
2017-07-11T22:25:17.733Z,21.63
2017-07-11T22:27:47.183Z,21.56
2017-07-11T22:30:16.635Z,21.49
2017-07-11T22:32:46.080Z,21.43
2017-07-11T22:35:15.522Z,21.44
2017-07-11T22:37:44.969Z,21.44
2017-07-11T22:40:15.374Z,21.39
2017-07-11T22:42:44.829Z,21.32
2017-07-11T22:45:14.273Z,21.30
2017-07-11T22:47:43.735Z,21.26
2017-07-11T22:50:13.172Z,21.22
2017-07-11T22:52:42.609Z,21.19
2017-07-11T22:55:11.917Z,21.13
2017-07-11T22:57:41.381Z,21.06
2017-07-11T23:00:10.818Z,21.00
2017-07-11T23:02:40.387Z,20.95
2017-07-11T23:05:09.846Z,20.94
2017-07-11T23:07:39.298Z,20.90
2017-07-11T23:10:08.765Z,20.87
2017-07-11T23:12:38.217Z,20.81
2017-07-11T23:15:07.678Z,20.78
2017-07-11T23:17:37.126Z,20.75
2017-07-11T23:20:06.570Z,20.70
2017-07-11T23:22:36.053Z,20.64
2017-07-11T23:25:05.534Z,20.58
2017-07-11T23:27:34.972Z,20.57
2017-07-11T23:30:04.423Z,20.58
2017-07-11T23:32:33.866Z,20.58
2017-07-11T23:35:03.305Z,20.61
2017-07-11T23:37:32.577Z,20.56
2017-07-11T23:40:02.052Z,20.54
2017-07-11T23:42:31.557Z,20.42
2017-07-11T23:45:00.994Z,20.27
2017-07-11T23:47:30.429Z,20.16
2017-07-11T23:49:59.879Z,20.06
2017-07-11T23:52:29.330Z,19.97
2017-07-11T23:54:58.785Z,19.91
2017-07-11T23:57:28.241Z,19.87
2017-07-11T23:59:57.692Z,19.82
